createdAt,value
2023-02-06T00:01:00.083Z,14.10
2023-02-06T00:06:01.806Z,15.80
2023-02-06T00:11:08.522Z,17.80
2023-02-06T00:16:33.224Z,16.20
2023-02-06T00:21:34.940Z,15.00
2023-02-06T00:26:36.774Z,15.10
2023-02-06T00:31:40.864Z,13.70
2023-02-06T00:36:42.678Z,16.00
2023-02-06T00:41:45.122Z,15.40
2023-02-06T00:46:46.995Z,19.10
2023-02-06T00:51:48.905Z,18.80
2023-02-06T00:56:50.634Z,22.80
2023-02-06T01:01:52.360Z,25.20
2023-02-06T01:11:56.666Z,24.20
2023-02-06T01:22:00.002Z,24.30
2023-02-06T01:32:03.501Z,27.00
2023-02-06T01:37:05.257Z,34.40
2023-02-06T01:47:10.960Z,34.10
2023-02-06T01:52:21.561Z,34.10
2023-02-06T01:57:25.593Z,38.10
2023-02-06T02:02:28.708Z,38.10
2023-02-06T02:07:35.661Z,36.00
2023-02-06T02:12:37.366Z,39.20
2023-02-06T02:17:56.040Z,39.60
2023-02-06T02:23:21.338Z,39.60
2023-02-06T02:28:38.187Z,34.20
2023-02-06T02:34:09.929Z,35.50
2023-02-06T02:39:29.930Z,32.00
2023-02-06T02:45:02.089Z,35.30
2023-02-06T02:50:05.515Z,32.90
2023-02-06T02:55:16.205Z,31.80
2023-02-06T03:00:20.596Z,29.60
2023-02-06T03:05:25.100Z,30.00
2023-02-06T03:11:03.933Z,28.70
2023-02-06T03:16:11.453Z,31.90
2023-02-06T03:21:17.741Z,31.10
2023-02-06T03:26:23.820Z,34.70
2023-02-06T03:32:15.103Z,33.20
2023-02-06T03:37:17.293Z,19.70
2023-02-06T03:42:21.814Z,30.40
2023-02-06T03:47:25.678Z,32.80
2023-02-06T03:52:33.372Z,30.10
2023-02-06T03:57:37.333Z,29.90
2023-02-06T04:02:40.691Z,25.70
2023-02-06T04:07:42.736Z,26.90
2023-02-06T04:12:44.469Z,26.10
2023-02-06T04:17:58.758Z,23.60
2023-02-06T04:23:01.504Z,22.90
2023-02-06T04:28:04.005Z,20.90
2023-02-06T04:33:05.829Z,20.40
2023-02-06T04:48:10.846Z,34.00
2023-02-06T04:58:14.099Z,27.70
2023-02-06T05:03:15.817Z,22.30
2023-02-06T05:13:19.957Z,28.10
2023-02-06T05:18:21.972Z,25.20
2023-02-06T05:23:23.662Z,32.40
2023-02-06T05:33:36.765Z,26.60
2023-02-06T05:48:42.256Z,31.30
2023-02-06T05:53:43.965Z,35.50
2023-02-06T05:58:45.718Z,38.30
2023-02-06T06:03:47.455Z,41.20
2023-02-06T06:08:49.243Z,46.40
2023-02-06T06:18:52.590Z,49.10
2023-02-06T06:23:54.257Z,52.90
2023-02-06T06:28:56.917Z,52.60
2023-02-06T06:33:58.659Z,54.10
2023-02-06T06:39:00.390Z,49.60
2023-02-06T06:44:10.389Z,54.90
2023-02-06T06:49:12.057Z,54.90
2023-02-06T06:54:15.246Z,53.90
2023-02-06T06:59:16.976Z,51.40
2023-02-06T07:04:20.991Z,51.50
2023-02-06T07:09:23.208Z,52.40
2023-02-06T07:14:25.049Z,48.60
2023-02-06T07:19:26.758Z,53.50
2023-02-06T07:24:28.497Z,53.60
2023-02-06T07:29:30.210Z,62.90
2023-02-06T07:34:32.336Z,57.30
2023-02-06T07:39:34.035Z,55.60
2023-02-06T07:44:35.760Z,57.80
2023-02-06T07:49:37.374Z,57.80
2023-02-06T07:54:39.106Z,54.60
2023-02-06T08:04:42.643Z,64.70
2023-02-06T08:09:44.435Z,85.50
2023-02-06T08:14:46.056Z,75.80
2023-02-06T08:19:49.074Z,72.10
2023-02-06T08:24:50.912Z,64.50
2023-02-06T08:34:54.264Z,44.10
2023-02-06T08:44:57.562Z,39.40
2023-02-06T08:50:01.502Z,35.80
2023-02-06T08:55:06.436Z,35.80
2023-02-06T09:00:09.992Z,31.40
2023-02-06T09:05:11.678Z,31.80
2023-02-06T09:15:29.439Z,23.50
2023-02-06T09:20:31.100Z,22.10
2023-02-06T09:30:34.443Z,18.60
2023-02-06T09:35:36.470Z,17.20
2023-02-06T09:40:38.716Z,20.50
2023-02-06T09:45:41.137Z,18.50
2023-02-06T09:51:15.401Z,15.20
2023-02-06T09:56:38.579Z,14.30
2023-02-06T10:01:49.324Z,34.70
2023-02-06T10:07:04.217Z,14.30
2023-02-06T10:12:29.984Z,13.60
2023-02-06T10:17:36.957Z,17.50
2023-02-06T10:23:04.719Z,16.60
2023-02-06T10:28:21.825Z,17.10
2023-02-06T10:33:47.080Z,17.20
2023-02-06T10:39:01.247Z,18.70
2023-02-06T10:44:28.921Z,17.00
2023-02-06T10:49:43.870Z,17.10
2023-02-06T10:54:52.376Z,17.10
2023-02-06T10:59:59.987Z,18.20
2023-02-06T11:05:13.885Z,15.80
2023-02-06T11:10:19.048Z,14.10
2023-02-06T11:15:32.799Z,12.90
2023-02-06T11:20:38.203Z,13.80
2023-02-06T11:25:42.237Z,13.40
2023-02-06T11:30:59.399Z,14.70
2023-02-06T11:36:02.254Z,14.70
2023-02-06T11:41:17.664Z,15.50
2023-02-06T11:46:28.317Z,14.70
2023-02-06T11:51:48.381Z,15.90
2023-02-06T11:57:23.995Z,16.70
2023-02-06T12:02:35.576Z,17.10
2023-02-06T12:07:42.265Z,19.70
2023-02-06T12:12:53.152Z,17.60
2023-02-06T12:18:03.162Z,17.90
2023-02-06T12:23:31.546Z,16.70
2023-02-06T12:28:55.874Z,19.70
2023-02-06T12:34:14.720Z,16.10
2023-02-06T12:39:22.865Z,20.90
2023-02-06T12:44:35.903Z,41.70
2023-02-06T12:50:23.144Z,21.10
2023-02-06T12:55:31.035Z,22.70
2023-02-06T13:00:45.005Z,21.80
2023-02-06T13:05:50.051Z,23.40
2023-02-06T13:11:04.830Z,21.40
2023-02-06T13:16:08.121Z,21.90
2023-02-06T13:21:20.064Z,23.90
2023-02-06T13:26:56.271Z,16.80
2023-02-06T13:32:18.657Z,16.60
2023-02-06T13:37:35.526Z,15.90
2023-02-06T13:42:54.124Z,12.90
2023-02-06T13:48:31.601Z,14.10
2023-02-06T13:53:52.296Z,13.40
2023-02-06T13:58:57.795Z,16.80
2023-02-06T14:04:15.190Z,17.30
2023-02-06T14:09:45.838Z,16.50
2023-02-06T14:15:00.641Z,14.20
2023-02-06T14:20:29.333Z,12.30
2023-02-06T14:25:55.786Z,14.70
2023-02-06T14:31:15.886Z,15.10
2023-02-06T14:36:47.909Z,21.10
2023-02-06T14:46:51.896Z,17.70
2023-02-06T14:51:53.842Z,14.80
2023-02-06T14:56:57.469Z,15.60
2023-02-06T15:02:11.403Z,16.70
2023-02-06T15:07:27.682Z,14.70
2023-02-06T15:12:30.188Z,15.60
2023-02-06T15:17:34.062Z,12.80
2023-02-06T15:22:35.884Z,13.10
2023-02-06T15:27:38.809Z,14.50
2023-02-06T15:32:40.687Z,13.50
2023-02-06T15:37:42.507Z,14.50
2023-02-06T15:42:46.054Z,17.80
2023-02-06T15:47:50.189Z,16.90
2023-02-06T15:52:52.216Z,19.70
2023-02-06T15:57:56.310Z,32.60
2023-02-06T16:03:05.075Z,40.30
2023-02-06T16:08:30.968Z,56.70
2023-02-06T16:13:33.367Z,32.30
2023-02-06T16:18:42.225Z,32.00
2023-02-06T16:24:03.442Z,31.10
2023-02-06T16:29:20.832Z,47.80
2023-02-06T16:34:31.581Z,23.90
2023-02-06T16:39:33.342Z,26.40
2023-02-06T16:44:44.754Z,36.80
2023-02-06T16:49:52.319Z,38.40
2023-02-06T16:54:56.012Z,36.60
2023-02-06T16:59:59.298Z,40.50
2023-02-06T17:05:01.248Z,36.70
2023-02-06T17:10:03.654Z,60.60
2023-02-06T17:15:06.546Z,58.40
2023-02-06T17:20:26.697Z,51.10
2023-02-06T17:25:29.054Z,44.70
2023-02-06T17:30:30.848Z,29.40
2023-02-06T17:35:36.572Z,35.70
2023-02-06T17:40:40.774Z,24.90
2023-02-06T17:45:43.062Z,30.20
2023-02-06T17:50:45.194Z,25.30
2023-02-06T17:55:47.519Z,33.00
2023-02-06T18:00:50.286Z,37.30
2023-02-06T18:05:59.801Z,47.70
2023-02-06T18:11:08.473Z,30.20
2023-02-06T18:16:19.826Z,32.60
2023-02-06T18:26:27.243Z,29.90
2023-02-06T18:31:33.296Z,31.80
2023-02-06T18:36:36.907Z,23.40
2023-02-06T18:41:57.687Z,29.70
2023-02-06T18:46:59.592Z,37.90
2023-02-06T18:52:01.573Z,36.70
2023-02-06T18:57:04.863Z,35.30
2023-02-06T19:02:09.930Z,36.60
2023-02-06T19:07:21.998Z,42.40
2023-02-06T19:12:24.005Z,43.00
2023-02-06T19:17:27.264Z,38.60
2023-02-06T19:22:29.305Z,36.10
2023-02-06T19:27:31.040Z,41.90
2023-02-06T19:32:32.925Z,40.50
2023-02-06T19:37:34.967Z,41.80
2023-02-06T19:42:36.945Z,39.40
2023-02-06T19:47:38.704Z,36.20
2023-02-06T19:52:40.591Z,36.40
2023-02-06T19:57:42.775Z,43.60
2023-02-06T20:02:44.501Z,35.90
2023-02-06T20:07:46.180Z,38.00
2023-02-06T20:12:48.327Z,43.40
2023-02-06T20:17:51.834Z,62.40
2023-02-06T20:22:53.611Z,48.90
2023-02-06T20:27:56.633Z,48.40
2023-02-06T20:32:58.584Z,50.60
2023-02-06T20:38:00.463Z,51.00
2023-02-06T20:43:02.448Z,45.60
2023-02-06T20:48:04.318Z,46.50
2023-02-06T20:53:05.966Z,46.10
2023-02-06T20:58:07.929Z,48.30
2023-02-06T21:03:09.703Z,45.40
2023-02-06T21:08:11.821Z,47.60
2023-02-06T21:13:13.538Z,84.60
2023-02-06T21:18:15.193Z,161.80
2023-02-06T21:23:17.412Z,190.80
2023-02-06T21:28:20.079Z,99.10
2023-02-06T21:33:22.039Z,86.70
2023-02-06T21:38:24.712Z,108.40
2023-02-06T21:43:26.403Z,132.40
2023-02-06T21:48:28.437Z,129.50
2023-02-06T21:53:30.100Z,117.70
2023-02-06T21:58:31.785Z,124.10
2023-02-06T22:03:34.329Z,100.10
2023-02-06T22:08:41.527Z,126.90
2023-02-06T22:13:49.518Z,151.80
2023-02-06T22:18:51.644Z,161.10
2023-02-06T22:23:56.800Z,133.40
2023-02-06T22:28:59.408Z,157.80
2023-02-06T22:34:02.918Z,140.30
2023-02-06T22:39:08.548Z,147.60
2023-02-06T22:44:16.473Z,135.40
2023-02-06T22:49:20.418Z,141.30
2023-02-06T22:54:22.104Z,166.20
2023-02-06T22:59:25.475Z,153.00
2023-02-06T23:04:30.088Z,147.20
2023-02-06T23:09:34.773Z,139.10
2023-02-06T23:14:36.527Z,166.20
2023-02-06T23:19:39.666Z,174.80
2023-02-06T23:24:41.737Z,190.40
2023-02-06T23:29:43.411Z,148.00
2023-02-06T23:34:45.104Z,202.00
2023-02-06T23:39:47.169Z,135.80
2023-02-06T23:44:49.036Z,126.90
2023-02-06T23:49:50.738Z,150.60
2023-02-06T23:54:52.463Z,163.40
2023-02-06T23:59:54.210Z,158.60
